createdAt,value
2018-02-14T00:01:56.625Z,5.82
2018-02-14T00:04:24.204Z,5.53
2018-02-14T00:06:52.559Z,6.22
2018-02-14T00:09:20.160Z,5.93
2018-02-14T00:11:47.731Z,6.70
2018-02-14T00:14:15.327Z,5.68
2018-02-14T00:16:42.930Z,5.72
2018-02-14T00:19:10.494Z,5.87
2018-02-14T00:21:38.097Z,5.80
2018-02-14T00:24:05.680Z,6.20
2018-02-14T00:26:33.270Z,6.37
2018-02-14T00:29:00.889Z,5.80
2018-02-14T00:31:28.466Z,5.93
2018-02-14T00:33:56.073Z,6.07
2018-02-14T00:36:23.639Z,5.40
2018-02-14T00:38:51.275Z,5.85
2018-02-14T00:41:18.863Z,5.72
2018-02-14T00:43:46.651Z,5.60
2018-02-14T00:46:14.995Z,6.10
2018-02-14T00:48:42.571Z,5.55
2018-02-14T00:51:10.275Z,6.37
2018-02-14T00:53:37.866Z,5.30
2018-02-14T00:56:05.439Z,5.90
2018-02-14T00:58:33.356Z,5.35
2018-02-14T01:01:00.946Z,5.20
2018-02-14T01:03:29.495Z,5.47
2018-02-14T01:05:57.897Z,5.15
2018-02-14T01:08:25.678Z,5.37
2018-02-14T01:10:54.055Z,5.40
2018-02-14T01:13:21.722Z,5.78
2018-02-14T01:15:49.342Z,5.57
2018-02-14T01:18:16.906Z,5.25
2018-02-14T01:20:44.512Z,4.80
2018-02-14T01:23:12.067Z,5.53
2018-02-14T01:25:39.671Z,5.93
2018-02-14T01:28:08.044Z,5.30
2018-02-14T01:30:36.504Z,5.12
2018-02-14T01:33:04.414Z,5.55
2018-02-14T01:35:33.497Z,5.20
2018-02-14T01:38:01.099Z,5.05
2018-02-14T01:40:28.675Z,5.00
2018-02-14T01:42:56.298Z,5.10
2018-02-14T01:45:24.650Z,4.87
2018-02-14T01:47:52.249Z,5.20
2018-02-14T01:50:20.596Z,5.40
2018-02-14T01:52:48.232Z,5.07
2018-02-14T01:55:15.823Z,5.57
2018-02-14T01:57:43.417Z,4.93
2018-02-14T02:00:10.980Z,5.05
2018-02-14T02:02:38.545Z,5.20
2018-02-14T02:05:06.176Z,5.57
2018-02-14T02:07:33.761Z,5.03
2018-02-14T02:10:01.418Z,4.72
2018-02-14T02:12:28.952Z,5.07
2018-02-14T02:14:56.630Z,4.87
2018-02-14T02:17:24.196Z,4.70
2018-02-14T02:19:51.783Z,5.13
2018-02-14T02:22:19.380Z,5.47
2018-02-14T02:24:47.711Z,5.15
2018-02-14T02:27:15.327Z,5.10
2018-02-14T02:29:42.928Z,4.60
2018-02-14T02:32:10.504Z,5.00
2018-02-14T02:34:38.116Z,5.28
2018-02-14T02:37:05.712Z,5.10
2018-02-14T02:39:45.432Z,5.30
2018-02-14T02:42:13.001Z,5.10
2018-02-14T02:44:41.354Z,4.82
2018-02-14T02:47:08.952Z,4.97
2018-02-14T02:49:37.284Z,5.37
2018-02-14T02:52:05.200Z,5.07
2018-02-14T02:54:33.540Z,5.00
2018-02-14T02:57:01.110Z,5.03
2018-02-14T02:59:28.705Z,4.82
2018-02-14T03:01:56.314Z,5.40
2018-02-14T03:04:23.871Z,5.00
2018-02-14T03:06:51.458Z,4.90
2018-02-14T03:09:19.165Z,5.22
2018-02-14T03:11:47.518Z,5.32
2018-02-14T03:14:15.096Z,5.00
2018-02-14T03:16:42.702Z,5.50
2018-02-14T03:19:11.397Z,5.28
2018-02-14T03:21:39.754Z,5.32
2018-02-14T03:24:07.320Z,4.90
2018-02-14T03:26:34.899Z,4.67
2018-02-14T03:29:02.521Z,4.70
2018-02-14T03:31:30.125Z,4.70
2018-02-14T03:33:58.539Z,4.90
2018-02-14T03:36:26.140Z,5.22
2018-02-14T03:38:53.699Z,4.75
2018-02-14T03:41:21.339Z,4.65
2018-02-14T03:43:48.920Z,4.70
2018-02-14T03:46:16.526Z,4.65
2018-02-14T03:48:44.530Z,4.68
2018-02-14T03:51:12.111Z,4.37
2018-02-14T03:53:39.733Z,5.10
2018-02-14T03:56:07.566Z,4.63
2018-02-14T03:58:35.224Z,5.05
2018-02-14T04:01:02.857Z,4.47
2018-02-14T04:03:31.387Z,4.80
2018-02-14T04:05:59.948Z,4.85
2018-02-14T04:08:27.812Z,4.55
2018-02-14T04:10:56.220Z,4.80
2018-02-14T04:13:23.808Z,5.10
2018-02-14T04:15:51.406Z,4.55
2018-02-14T04:18:19.758Z,4.70
2018-02-14T04:20:47.321Z,4.57
2018-02-14T04:23:14.915Z,5.25
2018-02-14T04:25:42.518Z,5.18
2018-02-14T04:28:23.001Z,4.87
2018-02-14T04:30:50.689Z,4.80
2018-02-14T04:33:18.272Z,4.70
2018-02-14T04:35:46.165Z,4.62
2018-02-14T04:38:15.134Z,5.12
2018-02-14T04:40:42.709Z,4.87
2018-02-14T04:43:11.071Z,5.18
2018-02-14T04:45:38.678Z,5.28
2018-02-14T04:48:06.267Z,5.30
2018-02-14T04:50:33.893Z,4.78
2018-02-14T04:53:02.239Z,5.00
2018-02-14T04:55:30.676Z,5.00
2018-02-14T04:57:58.282Z,5.20
2018-02-14T05:00:25.896Z,5.18
2018-02-14T05:02:54.260Z,4.97
2018-02-14T05:05:22.156Z,4.80
2018-02-14T05:07:50.504Z,4.95
2018-02-14T05:10:18.117Z,4.75
2018-02-14T05:12:45.725Z,4.65
2018-02-14T05:15:13.344Z,4.82
2018-02-14T05:17:40.944Z,5.03
2018-02-14T05:20:08.513Z,4.60
2018-02-14T05:22:36.095Z,5.13
2018-02-14T05:25:03.654Z,4.73
2018-02-14T05:27:31.264Z,4.97
2018-02-14T05:29:58.854Z,4.87
2018-02-14T05:32:26.438Z,5.27
2018-02-14T05:34:54.034Z,4.60
2018-02-14T05:37:21.645Z,4.43
2018-02-14T05:39:49.216Z,5.30
2018-02-14T05:42:17.025Z,5.07
2018-02-14T05:44:45.326Z,5.27
2018-02-14T05:47:13.708Z,5.10
2018-02-14T05:49:42.084Z,5.00
2018-02-14T05:52:10.461Z,5.18
2018-02-14T05:54:38.060Z,5.30
2018-02-14T05:57:06.436Z,4.70
2018-02-14T05:59:35.522Z,5.03
2018-02-14T06:02:03.117Z,5.05
2018-02-14T06:04:30.742Z,5.50
2018-02-14T06:06:58.339Z,5.37
2018-02-14T06:09:25.976Z,4.85
2018-02-14T06:11:53.578Z,5.10
2018-02-14T06:14:21.210Z,5.60
2018-02-14T06:16:48.793Z,5.30
2018-02-14T06:19:16.752Z,5.05
2018-02-14T06:21:45.140Z,6.12
2018-02-14T06:24:12.753Z,5.20
2018-02-14T06:26:40.423Z,5.37
2018-02-14T06:29:08.049Z,5.25
2018-02-14T06:31:35.668Z,5.35
2018-02-14T06:34:03.248Z,5.47
2018-02-14T06:36:30.874Z,5.43
2018-02-14T06:38:58.594Z,5.03
2018-02-14T06:41:26.205Z,5.10
2018-02-14T06:43:53.785Z,5.25
2018-02-14T06:46:21.713Z,5.50
2018-02-14T06:48:50.079Z,5.15
2018-02-14T06:51:18.220Z,5.07
2018-02-14T06:53:45.834Z,5.25
2018-02-14T06:56:14.181Z,5.37
2018-02-14T06:58:41.870Z,4.87
2018-02-14T07:01:09.499Z,5.17
2018-02-14T07:03:37.813Z,5.43
2018-02-14T07:06:05.376Z,5.78
2018-02-14T07:08:33.436Z,5.32
2018-02-14T07:11:01.061Z,5.03
2018-02-14T07:13:30.262Z,5.47
2018-02-14T07:15:58.675Z,5.55
2018-02-14T07:18:26.287Z,6.00
2018-02-14T07:20:53.930Z,5.30
2018-02-14T07:23:27.230Z,5.97
2018-02-14T07:25:54.802Z,5.47
2018-02-14T07:28:22.466Z,5.60
2018-02-14T07:30:50.048Z,6.10
2018-02-14T07:33:18.443Z,5.70
2018-02-14T07:35:46.832Z,6.47
2018-02-14T07:38:15.213Z,6.43
2018-02-14T07:40:43.599Z,6.30
2018-02-14T07:43:12.810Z,6.68
2018-02-14T07:45:41.163Z,6.00
2018-02-14T07:48:08.752Z,6.97
2018-02-14T07:50:37.113Z,6.57
2018-02-14T07:53:04.737Z,6.68
2018-02-14T07:55:32.322Z,6.12
2018-02-14T07:57:59.960Z,6.85
2018-02-14T08:00:27.960Z,6.82
2018-02-14T08:02:55.737Z,7.25
2018-02-14T08:05:23.325Z,7.35
2018-02-14T08:07:51.676Z,6.62
2018-02-14T08:10:19.293Z,6.75
2018-02-14T08:12:47.756Z,6.97
2018-02-14T08:15:15.383Z,7.35
2018-02-14T08:17:43.034Z,6.80
2018-02-14T08:20:11.106Z,7.15
2018-02-14T08:22:38.686Z,7.43
2018-02-14T08:25:06.313Z,7.32
2018-02-14T08:27:34.685Z,7.45
2018-02-14T08:30:03.040Z,8.05
2018-02-14T08:32:30.629Z,7.87
2018-02-14T08:34:59.128Z,7.70
2018-02-14T08:37:27.462Z,8.43
2018-02-14T08:39:55.083Z,8.30
2018-02-14T08:42:22.702Z,8.65
2018-02-14T08:44:50.332Z,8.88
2018-02-14T08:47:17.903Z,8.83
2018-02-14T08:49:45.503Z,8.43
2018-02-14T08:52:13.068Z,8.88
2018-02-14T08:54:40.687Z,8.93
2018-02-14T08:57:08.262Z,9.73
2018-02-14T08:59:35.843Z,9.65
2018-02-14T09:02:03.479Z,10.20
2018-02-14T09:04:31.100Z,9.35
2018-02-14T09:06:58.678Z,9.87
2018-02-14T09:09:26.293Z,9.88
2018-02-14T09:11:53.896Z,9.90
2018-02-14T09:14:21.501Z,10.27
2018-02-14T09:16:49.880Z,10.23
2018-02-14T09:19:18.258Z,10.43
2018-02-14T09:21:46.640Z,10.30
2018-02-14T09:24:15.305Z,10.88
2018-02-14T09:26:42.889Z,10.75
2018-02-14T09:29:11.265Z,10.43
2018-02-14T09:31:38.873Z,10.00
2018-02-14T09:34:06.433Z,10.25
2018-02-14T09:36:34.040Z,10.52
2018-02-14T09:39:01.657Z,10.23
2018-02-14T09:41:29.277Z,11.07
2018-02-14T09:43:56.904Z,10.63
2018-02-14T09:46:24.531Z,11.55
2018-02-14T09:48:52.876Z,10.40
2018-02-14T09:51:20.463Z,10.17
2018-02-14T09:53:48.095Z,11.00
2018-02-14T09:56:15.704Z,11.35
2018-02-14T09:58:43.309Z,10.13
2018-02-14T10:01:10.956Z,10.02
2018-02-14T10:03:39.333Z,11.25
2018-02-14T10:06:07.706Z,11.10
2018-02-14T10:08:35.324Z,11.60
2018-02-14T10:11:02.928Z,10.50
2018-02-14T10:13:30.505Z,10.27
2018-02-14T10:15:58.112Z,9.85
2018-02-14T10:18:25.686Z,11.00
2018-02-14T10:20:53.314Z,10.48
2018-02-14T10:23:20.895Z,10.30
2018-02-14T10:25:48.510Z,9.95
2018-02-14T10:28:16.763Z,9.93
2018-02-14T10:30:44.393Z,10.48
2018-02-14T10:33:12.731Z,10.13
2018-02-14T10:35:40.362Z,10.38
2018-02-14T10:38:07.952Z,9.93
2018-02-14T10:40:35.593Z,10.40
2018-02-14T10:43:03.164Z,10.77
2018-02-14T10:45:31.015Z,10.50
2018-02-14T10:47:58.689Z,10.68
2018-02-14T10:50:26.297Z,9.63
2018-02-14T10:52:53.860Z,10.57
2018-02-14T10:55:21.479Z,10.70
2018-02-14T10:57:49.877Z,9.95
2018-02-14T11:03:23.139Z,10.25
2018-02-14T11:05:56.401Z,10.30
2018-02-14T11:08:24.009Z,10.15
2018-02-14T11:10:52.359Z,9.53
2018-02-14T11:13:19.937Z,9.70
2018-02-14T11:15:49.696Z,9.90
2018-02-14T11:18:17.280Z,9.77
2018-02-14T11:20:44.887Z,9.50
2018-02-14T11:23:12.488Z,9.23
2018-02-14T11:25:40.053Z,8.32
2018-02-14T11:28:07.664Z,8.85
2018-02-14T11:30:35.238Z,8.95
2018-02-14T11:33:02.867Z,9.45
2018-02-14T11:35:30.458Z,8.88
2018-02-14T11:37:58.035Z,9.32
2018-02-14T11:40:25.673Z,9.15
2018-02-14T11:42:53.262Z,8.32
2018-02-14T11:45:20.868Z,9.17
2018-02-14T11:47:48.487Z,8.85
2018-02-14T11:50:16.063Z,8.80
2018-02-14T11:52:43.653Z,8.50
2018-02-14T11:55:12.052Z,8.57
2018-02-14T11:57:40.388Z,7.40
2018-02-14T12:00:08.176Z,6.30
2018-02-14T12:02:35.752Z,6.07
2018-02-14T12:05:04.726Z,6.80
2018-02-14T12:07:32.333Z,7.00
2018-02-14T12:09:59.914Z,6.90
2018-02-14T12:12:27.524Z,7.57
2018-02-14T12:14:55.086Z,7.07
2018-02-14T12:17:22.639Z,7.37
2018-02-14T12:19:50.255Z,7.32
2018-02-14T12:22:18.588Z,7.75
2018-02-14T12:24:46.154Z,7.43
2018-02-14T12:27:13.749Z,7.20
2018-02-14T12:29:41.404Z,7.95
2018-02-14T12:32:09.023Z,7.07
2018-02-14T12:34:36.584Z,7.90
2018-02-14T12:37:04.162Z,6.97
2018-02-14T12:39:31.760Z,7.10
2018-02-14T12:42:00.132Z,6.97
2018-02-14T12:44:27.722Z,6.80
2018-02-14T12:46:55.790Z,6.37
2018-02-14T12:49:24.382Z,6.97
2018-02-14T12:51:52.056Z,6.77
2018-02-14T12:54:20.533Z,6.12
2018-02-14T12:56:48.080Z,5.63
2018-02-14T12:59:15.690Z,6.35
2018-02-14T13:01:43.299Z,5.78
2018-02-14T13:04:11.188Z,5.97
2018-02-14T13:06:38.760Z,5.95
2018-02-14T13:09:07.123Z,5.55
2018-02-14T13:11:34.735Z,5.30
2018-02-14T13:14:03.118Z,5.27
2018-02-14T13:16:31.485Z,5.62
2018-02-14T13:18:59.079Z,5.68
2018-02-14T13:21:27.536Z,5.90
2018-02-14T13:23:55.087Z,5.28
2018-02-14T13:26:23.676Z,5.57
2018-02-14T13:28:51.261Z,5.53
2018-02-14T13:31:19.746Z,4.97
2018-02-14T13:33:48.482Z,5.25
2018-02-14T13:36:16.063Z,5.70
2018-02-14T13:38:43.666Z,5.15
2018-02-14T13:41:11.234Z,5.25
2018-02-14T13:43:38.824Z,5.18
2018-02-14T13:46:06.429Z,5.17
2018-02-14T13:48:34.022Z,4.85
2018-02-14T13:51:01.630Z,4.87
2018-02-14T13:53:29.255Z,4.93
2018-02-14T13:55:56.807Z,4.78
2018-02-14T13:58:24.890Z,5.00
2018-02-14T14:00:52.502Z,4.37
2018-02-14T14:03:20.129Z,4.43
2018-02-14T14:05:47.739Z,4.35
2018-02-14T14:08:15.331Z,4.47
2018-02-14T14:10:42.925Z,4.20
2018-02-14T14:13:11.052Z,4.87
2018-02-14T14:15:39.094Z,4.00
2018-02-14T14:18:06.764Z,4.65
2018-02-14T14:20:35.121Z,5.22
2018-02-14T14:23:03.322Z,4.97
2018-02-14T14:25:32.251Z,5.25
2018-02-14T14:27:59.901Z,5.20
2018-02-14T14:30:27.517Z,5.23
2018-02-14T14:32:55.191Z,5.15
2018-02-14T14:35:22.805Z,4.60
2018-02-14T14:37:50.365Z,4.85
2018-02-14T14:40:17.951Z,4.95
2018-02-14T14:42:45.597Z,4.95
2018-02-14T14:45:13.215Z,5.18
2018-02-14T14:47:40.817Z,5.07
2018-02-14T14:50:08.471Z,5.40
2018-02-14T14:52:36.093Z,5.40
2018-02-14T14:55:03.786Z,5.32
2018-02-14T14:57:32.164Z,5.82
2018-02-14T14:59:59.813Z,5.72
2018-02-14T15:02:28.210Z,5.87
2018-02-14T15:04:55.769Z,5.50
2018-02-14T15:07:23.376Z,5.37
2018-02-14T15:09:50.974Z,5.28
2018-02-14T15:12:18.586Z,5.80
2018-02-14T15:14:46.169Z,6.10
2018-02-14T15:17:13.748Z,5.50
2018-02-14T15:19:41.421Z,5.80
2018-02-14T15:22:09.066Z,6.70
2018-02-14T15:24:36.709Z,6.37
2018-02-14T15:27:05.081Z,6.25
2018-02-14T15:29:33.444Z,6.50
2018-02-14T15:32:01.059Z,6.20
2018-02-14T15:34:28.768Z,5.85
2018-02-14T15:36:56.398Z,5.47
2018-02-14T15:39:24.029Z,6.40
2018-02-14T15:41:51.678Z,5.80
2018-02-14T15:44:19.222Z,6.60
2018-02-14T15:46:46.854Z,5.97
2018-02-14T15:49:14.544Z,6.22
2018-02-14T15:51:42.133Z,5.87
2018-02-14T15:54:09.699Z,5.75
2018-02-14T15:56:37.307Z,5.80
2018-02-14T15:59:04.937Z,6.10
2018-02-14T16:01:32.535Z,5.53
2018-02-14T16:04:00.876Z,5.97
2018-02-14T16:06:28.499Z,5.95
2018-02-14T16:08:56.089Z,6.65
2018-02-14T16:11:23.669Z,6.63
2018-02-14T16:13:51.258Z,7.28
2018-02-14T16:16:18.855Z,7.15
2018-02-14T16:18:46.474Z,7.28
2018-02-14T16:21:14.056Z,7.95
2018-02-14T16:23:41.950Z,7.87
2018-02-14T16:26:10.733Z,7.53
2018-02-14T16:28:39.067Z,8.53
2018-02-14T16:31:06.973Z,8.65
2018-02-14T16:33:34.568Z,8.68
2018-02-14T16:36:02.973Z,9.45
2018-02-14T16:38:30.734Z,9.43
2018-02-14T16:40:59.345Z,10.25
2018-02-14T16:43:26.955Z,9.65
2018-02-14T16:45:54.638Z,9.25
2018-02-14T16:48:23.025Z,9.57
2018-02-14T16:50:50.683Z,10.35
2018-02-14T16:53:19.060Z,10.02
2018-02-14T16:55:47.499Z,10.10
2018-02-14T16:58:15.140Z,10.57
2018-02-14T17:00:43.500Z,11.07
2018-02-14T17:03:12.046Z,10.90
2018-02-14T17:05:39.667Z,10.73
2018-02-14T17:08:08.070Z,12.00
2018-02-14T17:10:35.688Z,10.52
2018-02-14T17:13:03.319Z,11.70
2018-02-14T17:15:31.260Z,11.70
2018-02-14T17:17:59.844Z,11.47
2018-02-14T17:20:28.193Z,11.38
2018-02-14T17:22:56.398Z,11.15
2018-02-14T17:25:24.745Z,11.60
2018-02-14T17:27:52.412Z,11.57
2018-02-14T17:30:20.050Z,11.77
2018-02-14T17:32:47.689Z,12.05
2018-02-14T17:35:15.296Z,11.40
2018-02-14T17:37:43.024Z,11.12
2018-02-14T17:40:10.612Z,11.52
2018-02-14T17:42:38.254Z,11.30
2018-02-14T17:45:06.147Z,10.95
2018-02-14T17:47:33.738Z,10.48
2018-02-14T17:50:01.337Z,11.32
2018-02-14T17:52:29.741Z,10.02
2018-02-14T17:54:57.360Z,12.43
2018-02-14T17:57:25.007Z,10.67
2018-02-14T17:59:52.654Z,10.98
2018-02-14T18:02:20.275Z,11.50
2018-02-14T18:04:47.905Z,10.05
2018-02-14T18:07:16.037Z,10.85
2018-02-14T18:09:44.405Z,11.02
2018-02-14T18:12:12.174Z,11.32
2018-02-14T18:14:39.789Z,10.35
2018-02-14T18:17:07.392Z,11.52
2018-02-14T18:19:35.058Z,10.48
2018-02-14T18:22:03.116Z,10.55
2018-02-14T18:24:30.702Z,11.18
2018-02-14T18:26:58.330Z,10.95
2018-02-14T18:29:25.983Z,10.77
2018-02-14T18:31:53.666Z,10.57
2018-02-14T18:34:21.303Z,10.15
2018-02-14T18:36:49.644Z,9.95
2018-02-14T18:39:17.284Z,10.25
2018-02-14T18:41:44.873Z,10.20
2018-02-14T18:44:12.503Z,10.65
2018-02-14T18:46:40.097Z,9.85
2018-02-14T18:49:09.656Z,9.55
2018-02-14T18:51:38.039Z,9.38
2018-02-14T18:54:06.639Z,9.50
2018-02-14T18:56:34.255Z,8.75
2018-02-14T18:59:02.028Z,8.93
2018-02-14T19:01:29.621Z,8.15
2018-02-14T19:03:58.081Z,7.50
2018-02-14T19:06:25.731Z,8.52
2018-02-14T19:08:53.390Z,8.15
2018-02-14T19:11:21.022Z,7.87
2018-02-14T19:13:49.660Z,7.00
2018-02-14T19:16:17.512Z,7.75
2018-02-14T19:18:45.135Z,7.95
2018-02-14T19:21:12.797Z,7.28
2018-02-14T19:23:41.170Z,8.50
2018-02-14T19:26:08.934Z,8.20
2018-02-14T19:28:36.595Z,8.75
2018-02-14T19:31:05.096Z,7.07
2018-02-14T19:33:32.724Z,7.85
2018-02-14T19:36:00.331Z,7.57
2018-02-14T19:38:28.933Z,8.05
2018-02-14T19:40:56.537Z,8.27
2018-02-14T19:43:25.158Z,8.70
2018-02-14T19:45:53.589Z,7.93
2018-02-14T19:48:21.273Z,9.07
2018-02-14T19:50:48.902Z,8.38
2018-02-14T19:53:17.373Z,8.25
2018-02-14T19:55:45.346Z,7.85
2018-02-14T19:58:12.957Z,7.97
2018-02-14T20:00:40.662Z,9.23
2018-02-14T20:03:08.236Z,9.13
2018-02-14T20:05:35.852Z,7.53
2018-02-14T20:08:04.226Z,8.07
2018-02-14T20:10:31.833Z,8.60
2018-02-14T20:12:59.528Z,8.32
2018-02-14T20:15:27.108Z,8.70
2018-02-14T20:17:55.099Z,8.48
2018-02-14T20:20:23.500Z,8.87
2018-02-14T20:22:51.092Z,8.68
2018-02-14T20:25:19.594Z,8.55
2018-02-14T20:27:47.229Z,8.80
2018-02-14T20:30:14.897Z,8.75
2018-02-14T20:32:42.527Z,8.32
2018-02-14T20:35:10.177Z,8.55
2018-02-14T20:37:37.850Z,9.07
2018-02-14T20:40:05.493Z,8.33
2018-02-14T20:42:33.087Z,9.35
2018-02-14T20:45:01.505Z,9.35
2018-02-14T20:47:29.142Z,9.13
2018-02-14T20:49:56.804Z,8.98
2018-02-14T20:52:24.391Z,9.57
2018-02-14T20:54:52.780Z,9.77
2018-02-14T20:57:21.149Z,9.82
2018-02-14T20:59:49.548Z,9.70
2018-02-14T21:04:51.056Z,9.80
2018-02-14T21:07:18.762Z,9.80
2018-02-14T21:09:46.463Z,9.38
2018-02-14T21:12:14.116Z,9.63
2018-02-14T21:14:41.740Z,9.55
2018-02-14T21:17:09.401Z,9.95
2018-02-14T21:19:37.583Z,10.13
2018-02-14T21:22:05.223Z,9.48
2018-02-14T21:24:32.880Z,9.45
2018-02-14T21:27:01.395Z,9.40
2018-02-14T21:29:29.024Z,9.98
2018-02-14T21:31:57.426Z,10.63
2018-02-14T21:34:25.348Z,10.70
2018-02-14T21:36:52.797Z,9.25
2018-02-14T21:39:20.412Z,10.07
2018-02-14T21:41:48.843Z,9.95
2018-02-14T21:44:16.511Z,8.43
2018-02-14T21:46:44.114Z,9.70
2018-02-14T21:49:12.498Z,9.80
2018-02-14T21:51:41.145Z,10.02
2018-02-14T21:54:08.742Z,9.75
2018-02-14T21:56:36.356Z,8.88
2018-02-14T21:59:03.973Z,9.35
2018-02-14T22:01:32.416Z,10.20
2018-02-14T22:04:00.029Z,9.97
2018-02-14T22:06:28.435Z,10.17
2018-02-14T22:08:56.836Z,9.48
2018-02-14T22:11:24.829Z,10.32
2018-02-14T22:13:52.453Z,10.60
2018-02-14T22:16:20.851Z,10.20
2018-02-14T22:18:48.599Z,10.18
2018-02-14T22:21:16.200Z,10.48
2018-02-14T22:23:43.799Z,10.23
2018-02-14T22:26:11.426Z,10.37
2018-02-14T22:28:39.741Z,9.63
2018-02-14T22:31:07.329Z,10.00
2018-02-14T22:33:35.755Z,9.05
2018-02-14T22:36:03.365Z,8.95
2018-02-14T22:38:30.975Z,9.50
2018-02-14T22:40:59.403Z,9.00
2018-02-14T22:43:26.992Z,8.73
2018-02-14T22:45:54.622Z,8.75
2018-02-14T22:48:22.219Z,9.73
2018-02-14T22:50:50.867Z,9.75
2018-02-14T22:53:18.503Z,9.30
2018-02-14T22:55:46.921Z,8.90
2018-02-14T22:58:14.547Z,9.27
2018-02-14T23:00:42.931Z,8.38
2018-02-14T23:03:11.293Z,8.30
2018-02-14T23:05:38.944Z,8.88
2018-02-14T23:08:06.545Z,8.80
2018-02-14T23:10:34.981Z,8.90
2018-02-14T23:13:02.591Z,8.73
2018-02-14T23:15:30.975Z,9.38
2018-02-14T23:17:58.627Z,8.93
2018-02-14T23:20:26.230Z,9.25
2018-02-14T23:22:53.990Z,9.57
2018-02-14T23:25:22.374Z,9.93
2018-02-14T23:27:49.993Z,10.52
2018-02-14T23:30:17.647Z,10.00
2018-02-14T23:32:45.251Z,9.68
2018-02-14T23:35:12.873Z,10.60
2018-02-14T23:37:40.491Z,9.13
2018-02-14T23:40:08.311Z,9.60
2018-02-14T23:42:35.931Z,10.65
2018-02-14T23:45:04.314Z,10.48
2018-02-14T23:47:31.961Z,9.75
2018-02-14T23:49:59.594Z,10.07
2018-02-14T23:52:27.228Z,10.35
2018-02-14T23:54:55.912Z,8.87
2018-02-14T23:57:24.293Z,8.90
2018-02-14T23:59:52.703Z,10.88
